ADDS METAR Data INFO
IDs: Format: Raw Decoded Include TAF

Data at: 0219 UTC 18 Jan 2018

KROG 180158Z AUTO 23004KT 10SM CLR M07/M14 A3054 RMK AO2 SLP367 T10671139
KROG 180058Z 23003KT 10SM CLR M06/M14 A3054 RMK AO2 SLP368 T10561139
KROG 172358Z 24004KT 10SM CLR M05/M14 A3054 RMK AO2 SLP367 T10501139 11011 21050 58014
KROG 172258Z 22006KT 10SM CLR M02/M13 A3056 RMK AO2 SLP371 T10221128
KROG 172158Z 21006KT 10SM CLR M02/M13 A3057 RMK AO2 SLP375 T10171128
KROG 172058Z 25006KT 10SM CLR M02/M12 A3058 RMK AO2 SLP379 T10171117 56029
KROG 171958Z 18003KT 10SM CLR M02/M11 A3060 RMK AO2 SLP384 T10171111
KROG 171858Z VRB03KT 10SM CLR M02/M11 A3063 RMK AO2 SLP395 T10221111
KROG 171758Z 24004KT 10SM CLR M03/M12 A3067 RMK AO2 SLP410 T10281122 11028 21189 58004
KROG 171658Z 00000KT 10SM CLR M05/M12 A3070 RMK AO2 SLP422 T10501117
KROG 171558Z 26004KT 10SM CLR M08/M13 A3071 RMK AO2 SLP427 T10831133
KROG 171458Z 23003KT 10SM CLR M11/M14 A3069 RMK AO2 SLP420 T11111144 53006
KROG 171358Z 00000KT 10SM CLR M16/M18 A3067 RMK AO2 SLP419 T11611183
KROG 171258Z 21003KT 10SM CLR M18/M21 A3067 RMK AO2 SLP418 T11831206
KROG 171158Z 00000KT 10SM CLR M19/M21 A3067 RMK AO2 SLP417 7//// T11891206 11172 21189 55001
KROG 171058Z AUTO 00000KT 10SM CLR M18/M20 A3066 RMK AO2 SLP413 T11831200
KROG 170958Z AUTO 00000KT 10SM CLR M18/M19 A3066 RMK AO2 SLP413 T11781194
KROG 170858Z AUTO 00000KT 10SM CLR M18/M20 A3067 RMK AO2 SLP416 T11781200 56006
KROG 170758Z AUTO 00000KT 10SM CLR M18/M21 A3068 RMK AO2 SLP417 T11781206
KROG 170658Z AUTO 23003KT 10SM CLR M17/M20 A3068 RMK AO2 SLP419 T11721200
KROG 170558Z AUTO 25003KT 10SM CLR M18/M21 A3069 RMK AO2 SLP423 T11781206 11150 21178 411171189 56003
KROG 170458Z AUTO 26003KT 10SM CLR M18/M21 A3069 RMK AO2 SLP425 T11781206
KROG 170358Z AUTO 00000KT 10SM CLR M18/M21 A3070 RMK AO2 SLP428 T11781211
KROG 170258Z AUTO 00000KT 10SM CLR M17/M20 A3070 RMK AO2 SLP428 T11721200 51006
KROG 170158Z AUTO 34003KT 10SM CLR M16/M19 A3070 RMK AO2 SLP429 T11611194
KROG 170058Z 32005KT 10SM CLR M16/M19 A3070 RMK AO2 SLP428 T11561189
KROG 162358Z 33005KT 10SM CLR M15/M19 A3068 RMK AO2 SLP421 T11501189 11117 21150 51005
KROG 162258Z 32008KT 10SM CLR M13/M19 A3067 RMK AO2 SLP417 T11331189
KROG 162158Z 31008KT 10SM CLR M12/M18 A3067 RMK AO2 SLP417 T11221183
KROG 162058Z 29008KT 10SM CLR M12/M18 A3067 RMK AO2 SLP413 T11221183 56017
KROG 161958Z 30007KT 10SM CLR M12/M18 A3067 RMK AO2 SLP414 T11171183
KROG 161858Z 34010KT 10SM CLR M12/M19 A3069 RMK AO2 SLP419 T11221189
KROG 161758Z 27010KT 10SM CLR M13/M19 A3072 RMK AO2 SLP429 6//// T11281189 11128 21189 58004
KROG 161658Z 33009KT 10SM CLR M14/M20 A3074 RMK AO2 SLP438 T11441200
KROG 161558Z 33009KT 10SM CLR M17/M22 A3075 RMK AO2 SLP441 T11671217
KROG 161458Z 32008KT 10SM CLR M17/M22 A3073 RMK AO2 SLP435 T11671217 53014